sensor_id;sensor_type;location;lat;lon;timestamp;pressure;altitude;pressure_sealevel;temperature;humidity
5284;BME280;15377;48.540;9.268;2023-03-19T00:01:06;97193.31;;;8.75;100.00
5284;BME280;15377;48.540;9.268;2023-03-19T00:03:33;97193.31;;;8.75;100.00
5284;BME280;15377;48.540;9.268;2023-03-19T00:05:58;97197.88;;;8.78;100.00
5284;BME280;15377;48.540;9.268;2023-03-19T00:08:24;97190.00;;;8.71;100.00
5284;BME280;15377;48.540;9.268;2023-03-19T00:10:50;97198.25;;;8.62;100.00
5284;BME280;15377;48.540;9.268;2023-03-19T00:13:16;97191.75;;;8.51;100.00
5284;BME280;15377;48.540;9.268;2023-03-19T00:15:41;97196.31;;;8.54;100.00
5284;BME280;15377;48.540;9.268;2023-03-19T00:18:06;97194.63;;;8.56;100.00
5284;BME280;15377;48.540;9.268;2023-03-19T00:20:32;97190.91;;;8.68;100.00
5284;BME280;15377;48.540;9.268;2023-03-19T00:22:58;97183.00;;;8.61;100.00
5284;BME280;15377;48.540;9.268;2023-03-19T00:25:23;97200.69;;;8.60;100.00
5284;BME280;15377;48.540;9.268;2023-03-19T00:27:48;97194.63;;;8.56;100.00
5284;BME280;15377;48.540;9.268;2023-03-19T00:30:14;97194.91;;;8.58;100.00
5284;BME280;15377;48.540;9.268;2023-03-19T00:32:40;97197.31;;;8.65;100.00
5284;BME280;15377;48.540;9.268;2023-03-19T00:35:06;97194.94;;;8.49;100.00
5284;BME280;15377;48.540;9.268;2023-03-19T00:37:33;97193.78;;;8.32;100.00
5284;BME280;15377;48.540;9.268;2023-03-19T00:39:59;97195.34;;;8.24;100.00
5284;BME280;15377;48.540;9.268;2023-03-19T00:42:25;97204.19;;;8.19;100.00
5284;BME280;15377;48.540;9.268;2023-03-19T00:44:51;97202.50;;;8.13;100.00
5284;BME280;15377;48.540;9.268;2023-03-19T00:47:16;97202.03;;;8.14;100.00
5284;BME280;15377;48.540;9.268;2023-03-19T00:49:42;97190.47;;;8.10;100.00
5284;BME280;15377;48.540;9.268;2023-03-19T00:52:07;97196.72;;;8.11;100.00
5284;BME280;15377;48.540;9.268;2023-03-19T00:54:33;97196.09;;;8.16;100.00
5284;BME280;15377;48.540;9.268;2023-03-19T00:56:59;97202.03;;;8.32;100.00
5284;BME280;15377;48.540;9.268;2023-03-19T00:59:25;97210.53;;;8.34;100.00
5284;BME280;15377;48.540;9.268;2023-03-19T01:01:50;97207.78;;;8.34;100.00
5284;BME280;15377;48.540;9.268;2023-03-19T01:04:16;97223.31;;;8.37;100.00
5284;BME280;15377;48.540;9.268;2023-03-19T01:06:42;97214.19;;;8.40;100.00
5284;BME280;15377;48.540;9.268;2023-03-19T01:09:08;97224.50;;;8.54;100.00
5284;BME280;15377;48.540;9.268;2023-03-19T01:11:34;97225.69;;;8.62;100.00
5284;BME280;15377;48.540;9.268;2023-03-19T01:14:00;97231.44;;;8.73;100.00
5284;BME280;15377;48.540;9.268;2023-03-19T01:16:26;97230.16;;;8.83;100.00
5284;BME280;15377;48.540;9.268;2023-03-19T01:18:51;97233.81;;;8.89;100.00
5284;BME280;15377;48.540;9.268;2023-03-19T01:21:18;97252.38;;;8.94;100.00
5284;BME280;15377;48.540;9.268;2023-03-19T01:23:43;97259.34;;;9.04;100.00
5284;BME280;15377;48.540;9.268;2023-03-19T01:26:09;97207.38;;;8.68;100.00
5284;BME280;15377;48.540;9.268;2023-03-19T01:28:34;97265.72;;;9.10;100.00
5284;BME280;15377;48.540;9.268;2023-03-19T01:31:01;97275.88;;;9.19;100.00
5284;BME280;15377;48.540;9.268;2023-03-19T01:33:29;97275.44;;;9.20;100.00
5284;BME280;15377;48.540;9.268;2023-03-19T01:35:55;97277.84;;;9.27;100.00
5284;BME280;15377;48.540;9.268;2023-03-19T01:38:22;97270.84;;;9.26;100.00
5284;BME280;15377;48.540;9.268;2023-03-19T01:40:47;97268.09;;;9.26;100.00
5284;BME280;15377;48.540;9.268;2023-03-19T01:43:14;97282.69;;;9.32;100.00
5284;BME280;15377;48.540;9.268;2023-03-19T01:45:42;97277.97;;;9.33;100.00
5284;BME280;15377;48.540;9.268;2023-03-19T01:48:18;97262.88;;;9.28;100.00
5284;BME280;15377;48.540;9.268;2023-03-19T01:50:46;97265.03;;;9.24;100.00
5284;BME280;15377;48.540;9.268;2023-03-19T01:53:16;97263.81;;;9.25;100.00
5284;BME280;15377;48.540;9.268;2023-03-19T01:55:42;97271.13;;;9.28;100.00
5284;BME280;15377;48.540;9.268;2023-03-19T01:58:08;97272.06;;;9.25;100.00
5284;BME280;15377;48.540;9.268;2023-03-19T02:00:36;97275.38;;;9.29;100.00
5284;BME280;15377;48.540;9.268;2023-03-19T02:03:04;97263.47;;;9.32;100.00
5284;BME280;15377;48.540;9.268;2023-03-19T02:05:30;97260.75;;;9.32;100.00
5284;BME280;15377;48.540;9.268;2023-03-19T02:08:02;97263.16;;;9.30;100.00
5284;BME280;15377;48.540;9.268;2023-03-19T02:10:29;97274.19;;;9.21;100.00
5284;BME280;15377;48.540;9.268;2023-03-19T02:12:55;97268.81;;;9.03;100.00
5284;BME280;15377;48.540;9.268;2023-03-19T02:15:21;97266.91;;;8.86;100.00
5284;BME280;15377;48.540;9.268;2023-03-19T02:17:47;97264.66;;;8.75;100.00
5284;BME280;15377;48.540;9.268;2023-03-19T02:20:21;97279.41;;;8.78;100.00
5284;BME280;15377;48.540;9.268;2023-03-19T02:26:02;97279.28;;;8.72;100.00
5284;BME280;15377;48.540;9.268;2023-03-19T02:28:30;97279.28;;;8.72;100.00
5284;BME280;15377;48.540;9.268;2023-03-19T02:30:57;97278.38;;;8.66;100.00
5284;BME280;15377;48.540;9.268;2023-03-19T02:33:22;97284.66;;;8.67;100.00
5284;BME280;15377;48.540;9.268;2023-03-19T02:35:49;97284.94;;;8.69;100.00
5284;BME280;15377;48.540;9.268;2023-03-19T02:38:15;97279.00;;;8.61;100.00
5284;BME280;15377;48.540;9.268;2023-03-19T02:40:48;97292.72;;;8.61;100.00
5284;BME280;15377;48.540;9.268;2023-03-19T02:43:15;97282.69;;;8.49;100.00
5284;BME280;15377;48.540;9.268;2023-03-19T02:45:41;97299.94;;;8.50;100.00
5284;BME280;15377;48.540;9.268;2023-03-19T02:48:06;97289.44;;;8.39;100.00
5284;BME280;15377;48.540;9.268;2023-03-19T02:50:32;97278.78;;;8.32;100.00
5284;BME280;15377;48.540;9.268;2023-03-19T02:52:57;97267.19;;;8.28;100.00
5284;BME280;15377;48.540;9.268;2023-03-19T02:55:22;97267.22;;;8.19;100.00
5284;BME280;15377;48.540;9.268;2023-03-19T02:57:48;97234.00;;;8.17;100.00
5284;BME280;15377;48.540;9.268;2023-03-19T03:00:14;97245.13;;;8.23;100.00
5284;BME280;15377;48.540;9.268;2023-03-19T03:02:41;97250.03;;;8.19;100.00
5284;BME280;15377;48.540;9.268;2023-03-19T03:05:08;97262.81;;;8.22;100.00
5284;BME280;15377;48.540;9.268;2023-03-19T03:07:34;97258.25;;;8.19;100.00
5284;BME280;15377;48.540;9.268;2023-03-19T03:09:59;97255.63;;;8.15;100.00
5284;BME280;15377;48.540;9.268;2023-03-19T03:12:24;97262.34;;;8.14;100.00
5284;BME280;15377;48.540;9.268;2023-03-19T03:14:50;97263.84;;;8.15;100.00
5284;BME280;15377;48.540;9.268;2023-03-19T03:17:15;97265.69;;;8.09;100.00
5284;BME280;15377;48.540;9.268;2023-03-19T03:19:41;97266.59;;;8.06;100.00
5284;BME280;15377;48.540;9.268;2023-03-19T03:22:06;97265.06;;;8.05;100.00
5284;BME280;15377;48.540;9.268;2023-03-19T03:24:32;97260.50;;;8.02;100.00
5284;BME280;15377;48.540;9.268;2023-03-19T03:26:57;97261.28;;;8.03;100.00
5284;BME280;15377;48.540;9.268;2023-03-19T03:29:22;97251.38;;;7.96;100.00
5284;BME280;15377;48.540;9.268;2023-03-19T03:31:48;97266.00;;;8.02;100.00
5284;BME280;15377;48.540;9.268;2023-03-19T03:34:13;97255.03;;;8.02;100.00
5284;BME280;15377;48.540;9.268;2023-03-19T03:36:39;97253.81;;;7.94;100.00
5284;BME280;15377;48.540;9.268;2023-03-19T03:39:04;97226.13;;;7.74;100.00
5284;BME280;15377;48.540;9.268;2023-03-19T03:41:30;97252.31;;;7.84;100.00
5284;BME280;15377;48.540;9.268;2023-03-19T03:43:55;97266.59;;;7.88;100.00
5284;BME280;15377;48.540;9.268;2023-03-19T03:46:21;97260.53;;;7.84;100.00
5284;BME280;15377;48.540;9.268;2023-03-19T03:48:47;97266.31;;;7.86;100.00
5284;BME280;15377;48.540;9.268;2023-03-19T03:51:14;97261.13;;;7.88;100.00
5284;BME280;15377;48.540;9.268;2023-03-19T03:53:39;97269.63;;;7.90;100.00
5284;BME280;15377;48.540;9.268;2023-03-19T03:56:05;97266.59;;;7.88;100.00
5284;BME280;15377;48.540;9.268;2023-03-19T03:58:30;97253.53;;;7.83;100.00
5284;BME280;15377;48.540;9.268;2023-03-19T04:00:56;97265.09;;;7.87;100.00
5284;BME280;15377;48.540;9.268;2023-03-19T04:03:22;97261.75;;;7.83;100.00
5284;BME280;15377;48.540;9.268;2023-03-19T04:05:48;97271.94;;;7.92;100.00
5284;BME280;15377;48.540;9.268;2023-03-19T04:08:14;97280.63;;;7.99;100.00
5284;BME280;15377;48.540;9.268;2023-03-19T04:10:40;97278.91;;;8.02;100.00
5284;BME280;15377;48.540;9.268;2023-03-19T04:13:07;97272.69;;;8.01;100.00
5284;BME280;15377;48.540;9.268;2023-03-19T04:15:33;97276.34;;;7.98;100.00
5284;BME280;15377;48.540;9.268;2023-03-19T04:17:59;97286.84;;;8.09;100.00
5284;BME280;15377;48.540;9.268;2023-03-19T04:20:24;97274.19;;;8.11;100.00
5284;BME280;15377;48.540;9.268;2023-03-19T04:22:50;97280.47;;;8.21;100.00
5284;BME280;15377;48.540;9.268;2023-03-19T04:25:16;97283.06;;;8.24;100.00
5284;BME280;15377;48.540;9.268;2023-03-19T04:27:43;97280.78;;;8.23;100.00
5284;BME280;15377;48.540;9.268;2023-03-19T04:30:08;97282.28;;;8.24;100.00
5284;BME280;15377;48.540;9.268;2023-03-19T04:32:35;97276.50;;;8.22;100.00
5284;BME280;15377;48.540;9.268;2023-03-19T04:35:01;97279.69;;;8.20;100.00
5284;BME280;15377;48.540;9.268;2023-03-19T04:37:27;97269.16;;;8.10;100.00
5284;BME280;15377;48.540;9.268;2023-03-19T04:39:52;97278.59;;;8.18;100.00
5284;BME280;15377;48.540;9.268;2023-03-19T04:42:18;97276.34;;;8.16;100.00
5284;BME280;15377;48.540;9.268;2023-03-19T04:44:44;97281.84;;;8.07;100.00
5284;BME280;15377;48.540;9.268;2023-03-19T04:47:09;97258.84;;;7.96;100.00
5284;BME280;15377;48.540;9.268;2023-03-19T04:49:35;97276.66;;;8.09;100.00
5284;BME280;15377;48.540;9.268;2023-03-19T04:52:01;97277.84;;;8.17;100.00
5284;BME280;15377;48.540;9.268;2023-03-19T04:54:27;97274.69;;;8.19;100.00
5284;BME280;15377;48.540;9.268;2023-03-19T04:56:52;97283.34;;;8.26;100.00
5284;BME280;15377;48.540;9.268;2023-03-19T04:59:18;97279.25;;;8.22;100.00
5284;BME280;15377;48.540;9.268;2023-03-19T05:01:43;97292.16;;;8.12;100.00
5284;BME280;15377;48.540;9.268;2023-03-19T05:04:09;97285.47;;;8.04;100.00
5284;BME280;15377;48.540;9.268;2023-03-19T05:06:35;97297.66;;;8.12;100.00
5284;BME280;15377;48.540;9.268;2023-03-19T05:09:02;97290.66;;;8.11;100.00
5284;BME280;15377;48.540;9.268;2023-03-19T05:11:28;97298.88;;;8.11;100.00
5284;BME280;15377;48.540;9.268;2023-03-19T05:13:54;97290.34;;;8.09;100.00
5284;BME280;15377;48.540;9.268;2023-03-19T05:16:19;97299.16;;;8.13;100.00
5284;BME280;15377;48.540;9.268;2023-03-19T05:18:45;97307.72;;;8.15;100.00
5284;BME280;15377;48.540;9.268;2023-03-19T05:21:11;97310.19;;;8.22;100.00
5284;BME280;15377;48.540;9.268;2023-03-19T05:23:38;97315.19;;;8.24;100.00
5284;BME280;15377;48.540;9.268;2023-03-19T05:26:03;97315.94;;;8.24;100.00
5284;BME280;15377;48.540;9.268;2023-03-19T05:28:29;97314.44;;;8.23;100.00
5284;BME280;15377;48.540;9.268;2023-03-19T05:30:55;97322.03;;;8.28;100.00
5284;BME280;15377;48.540;9.268;2023-03-19T05:33:21;97303.47;;;8.23;100.00
5284;BME280;15377;48.540;9.268;2023-03-19T05:35:47;97308.03;;;8.26;100.00
5284;BME280;15377;48.540;9.268;2023-03-19T05:38:13;97318.06;;;8.29;100.00
5284;BME280;15377;48.540;9.268;2023-03-19T05:40:38;97300.09;;;8.28;100.00
5284;BME280;15377;48.540;9.268;2023-03-19T05:43:06;97304.81;;;8.37;100.00
5284;BME280;15377;48.540;9.268;2023-03-19T05:45:33;97305.28;;;8.35;100.00
5284;BME280;15377;48.540;9.268;2023-03-19T05:48:00;97299.50;;;8.33;100.00
5284;BME280;15377;48.540;9.268;2023-03-19T05:50:25;97308.63;;;8.39;100.00
5284;BME280;15377;48.540;9.268;2023-03-19T05:52:51;97302.81;;;8.37;100.00
5284;BME280;15377;48.540;9.268;2023-03-19T05:55:16;97317.16;;;8.41;100.00
5284;BME280;15377;48.540;9.268;2023-03-19T05:57:42;97314.69;;;8.43;100.00
5284;BME280;15377;48.540;9.268;2023-03-19T06:00:08;97320.47;;;8.45;100.00
5284;BME280;15377;48.540;9.268;2023-03-19T06:02:35;97320.31;;;8.49;100.00
5284;BME280;15377;48.540;9.268;2023-03-19T06:05:00;97323.06;;;8.49;100.00
5284;BME280;15377;48.540;9.268;2023-03-19T06:07:26;97331.28;;;8.49;100.00
5284;BME280;15377;48.540;9.268;2023-03-19T06:09:51;97321.13;;;8.40;100.00
5284;BME280;15377;48.540;9.268;2023-03-19T06:12:17;97326.91;;;8.42;100.00
5284;BME280;15377;48.540;9.268;2023-03-19T06:14:42;97344.25;;;8.48;100.00
5284;BME280;15377;48.540;9.268;2023-03-19T06:17:07;97330.56;;;8.48;100.00
5284;BME280;15377;48.540;9.268;2023-03-19T06:19:33;97332.97;;;8.55;100.00
5284;BME280;15377;48.540;9.268;2023-03-19T06:21:59;97331.91;;;8.53;100.00
5284;BME280;15377;48.540;9.268;2023-03-19T06:24:25;97341.22;;;8.55;100.00
5284;BME280;15377;48.540;9.268;2023-03-19T06:26:50;97345.91;;;8.64;100.00
5284;BME280;15377;48.540;9.268;2023-03-19T06:29:15;97343.47;;;8.66;100.00
5284;BME280;15377;48.540;9.268;2023-03-19T06:31:41;97342.09;;;8.70;100.00
5284;BME280;15377;48.540;9.268;2023-03-19T06:34:06;97354.28;;;8.78;100.00
5284;BME280;15377;48.540;9.268;2023-03-19T06:36:32;97339.66;;;8.72;100.00
5284;BME280;15377;48.540;9.268;2023-03-19T06:38:57;97354.84;;;8.82;100.00
5284;BME280;15377;48.540;9.268;2023-03-19T06:41:23;97326.22;;;8.74;100.00
5284;BME280;15377;48.540;9.268;2023-03-19T06:43:51;97359.09;;;8.92;100.00
5284;BME280;15377;48.540;9.268;2023-03-19T06:46:17;97355.16;;;8.93;100.00
5284;BME280;15377;48.540;9.268;2023-03-19T06:48:42;97362.75;;;8.98;100.00
5284;BME280;15377;48.540;9.268;2023-03-19T06:51:08;97354.78;;;9.09;100.00
5284;BME280;15377;48.540;9.268;2023-03-19T06:53:33;97356.00;;;9.17;100.00
5284;BME280;15377;48.540;9.268;2023-03-19T06:55:59;97355.94;;;9.26;100.00
5284;BME280;15377;48.540;9.268;2023-03-19T06:58:24;97362.91;;;9.36;100.00
5284;BME280;15377;48.540;9.268;2023-03-19T07:00:50;97367.63;;;9.45;100.00
5284;BME280;15377;48.540;9.268;2023-03-19T07:03:15;97355.25;;;9.49;100.00
5284;BME280;15377;48.540;9.268;2023-03-19T07:05:41;97365.88;;;9.56;100.00
5284;BME280;15377;48.540;9.268;2023-03-19T07:08:06;97347.91;;;9.46;100.00
5284;BME280;15377;48.540;9.268;2023-03-19T07:10:39;97364.34;;;9.55;100.00
5284;BME280;15377;48.540;9.268;2023-03-19T07:13:05;97348.50;;;9.50;100.00
5284;BME280;15377;48.540;9.268;2023-03-19T07:15:30;97350.44;;;9.59;100.00
5284;BME280;15377;48.540;9.268;2023-03-19T07:17:56;97342.97;;;9.59;100.00
5284;BME280;15377;48.540;9.268;2023-03-19T07:20:21;97339.44;;;9.59;100.00
5284;BME280;15377;48.540;9.268;2023-03-19T07:22:49;97366.28;;;9.87;100.00
5284;BME280;15377;48.540;9.268;2023-03-19T07:25:15;97354.13;;;9.79;100.00
5284;BME280;15377;48.540;9.268;2023-03-19T07:27:40;97357.59;;;9.89;100.00
5284;BME280;15377;48.540;9.268;2023-03-19T07:30:06;97349.34;;;9.89;100.00
5284;BME280;15377;48.540;9.268;2023-03-19T07:32:32;97351.91;;;9.92;100.00
5284;BME280;15377;48.540;9.268;2023-03-19T07:34:57;97355.22;;;10.05;100.00
5284;BME280;15377;48.540;9.268;2023-03-19T07:37:22;97352.41;;;10.14;100.00
5284;BME280;15377;48.540;9.268;2023-03-19T07:39:51;97349.88;;;10.25;100.00
5284;BME280;15377;48.540;9.268;2023-03-19T07:42:16;97346.47;;;10.30;100.00
5284;BME280;15377;48.540;9.268;2023-03-19T07:44:41;97347.00;;;10.43;100.00
5284;BME280;15377;48.540;9.268;2023-03-19T07:47:07;97345.09;;;10.49;100.00
5284;BME280;15377;48.540;9.268;2023-03-19T07:49:32;97337.69;;;10.55;100.00
5284;BME280;15377;48.540;9.268;2023-03-19T07:51:57;97347.28;;;10.60;100.00
5284;BME280;15377;48.540;9.268;2023-03-19T07:54:23;97350.13;;;10.65;100.00
5284;BME280;15377;48.540;9.268;2023-03-19T07:56:48;97352.50;;;10.72;100.00
5284;BME280;15377;48.540;9.268;2023-03-19T07:59:14;97349.47;;;10.70;100.00
5284;BME280;15377;48.540;9.268;2023-03-19T08:01:39;97358.78;;;10.73;100.00
5284;BME280;15377;48.540;9.268;2023-03-19T08:04:04;97340.75;;;10.72;100.00
5284;BME280;15377;48.540;9.268;2023-03-19T08:06:30;97357.44;;;10.82;100.00
5284;BME280;15377;48.540;9.268;2023-03-19T08:08:55;97350.44;;;10.96;100.00
5284;BME280;15377;48.540;9.268;2023-03-19T08:11:21;97355.66;;;11.23;100.00
5284;BME280;15377;48.540;9.268;2023-03-19T08:13:46;97360.66;;;11.39;100.00
5284;BME280;15377;48.540;9.268;2023-03-19T08:16:12;97356.25;;;11.61;100.00
5284;BME280;15377;48.540;9.268;2023-03-19T08:18:37;97372.31;;;11.97;100.00
5284;BME280;15377;48.540;9.268;2023-03-19T08:21:03;97345.00;;;12.19;100.00
5284;BME280;15377;48.540;9.268;2023-03-19T08:23:29;97352.47;;;12.59;100.00
5284;BME280;15377;48.540;9.268;2023-03-19T08:25:54;97363.19;;;12.97;100.00
5284;BME280;15377;48.540;9.268;2023-03-19T08:28:21;97377.03;;;13.28;100.00
5284;BME280;15377;48.540;9.268;2023-03-19T08:30:47;97371.78;;;13.66;100.00
5284;BME280;15377;48.540;9.268;2023-03-19T08:33:13;97378.47;;;13.91;100.00
5284;BME280;15377;48.540;9.268;2023-03-19T08:35:38;97382.47;;;14.26;100.00
5284;BME280;15377;48.540;9.268;2023-03-19T08:38:04;97395.56;;;14.31;100.00
5284;BME280;15377;48.540;9.268;2023-03-19T08:40:29;97401.63;;;14.30;100.00
5284;BME280;15377;48.540;9.268;2023-03-19T08:42:55;97407.91;;;14.36;100.00
5284;BME280;15377;48.540;9.268;2023-03-19T08:45:21;97405.44;;;14.38;100.00
5284;BME280;15377;48.540;9.268;2023-03-19T08:47:47;97402.88;;;14.29;100.00
5284;BME280;15377;48.540;9.268;2023-03-19T08:50:13;97412.16;;;14.26;100.00
5284;BME280;15377;48.540;9.268;2023-03-19T08:52:38;97411.19;;;14.34;100.00
5284;BME280;15377;48.540;9.268;2023-03-19T08:55:04;97416.31;;;14.52;100.00
5284;BME280;15377;48.540;9.268;2023-03-19T08:57:31;97415.59;;;14.68;100.00
5284;BME280;15377;48.540;9.268;2023-03-19T08:59:57;97409.13;;;14.87;100.00
5284;BME280;15377;48.540;9.268;2023-03-19T09:02:23;97404.66;;;15.17;100.00
5284;BME280;15377;48.540;9.268;2023-03-19T09:04:48;97399.88;;;15.29;100.00
5284;BME280;15377;48.540;9.268;2023-03-19T09:07:13;97411.53;;;15.66;100.00
5284;BME280;15377;48.540;9.268;2023-03-19T09:09:41;97416.78;;;15.91;100.00
5284;BME280;15377;48.540;9.268;2023-03-19T09:12:09;97415.19;;;16.23;100.00
5284;BME280;15377;48.540;9.268;2023-03-19T09:14:35;97418.69;;;16.51;100.00
5284;BME280;15377;48.540;9.268;2023-03-19T09:17:01;97412.25;;;16.78;100.00
5284;BME280;15377;48.540;9.268;2023-03-19T09:19:26;97421.06;;;16.82;100.00
5284;BME280;15377;48.540;9.268;2023-03-19T09:21:52;97414.88;;;17.11;100.00
5284;BME280;15377;48.540;9.268;2023-03-19T09:24:18;97408.50;;;17.86;96.84
5284;BME280;15377;48.540;9.268;2023-03-19T09:26:45;97415.34;;;19.18;92.39
5284;BME280;15377;48.540;9.268;2023-03-19T09:29:11;97397.78;;;20.69;78.52
5284;BME280;15377;48.540;9.268;2023-03-19T09:31:37;97410.84;;;22.08;71.32
5284;BME280;15377;48.540;9.268;2023-03-19T09:34:02;97410.25;;;22.51;58.58
5284;BME280;15377;48.540;9.268;2023-03-19T09:36:28;97401.56;;;22.13;54.23
5284;BME280;15377;48.540;9.268;2023-03-19T09:38:53;97405.75;;;22.83;58.46
5284;BME280;15377;48.540;9.268;2023-03-19T09:44:20;97405.72;;;23.91;50.55
5284;BME280;15377;48.540;9.268;2023-03-19T09:46:57;97417.50;;;23.82;46.34
5284;BME280;15377;48.540;9.268;2023-03-19T09:49:33;97415.31;;;23.88;48.76
5284;BME280;15377;48.540;9.268;2023-03-19T09:54:47;97408.69;;;22.70;49.78
5284;BME280;15377;48.540;9.268;2023-03-19T09:57:17;97409.03;;;21.70;52.49
5284;BME280;15377;48.540;9.268;2023-03-19T09:59:43;97407.97;;;20.93;57.39
5284;BME280;15377;48.540;9.268;2023-03-19T10:02:23;97410.03;;;20.14;55.14
5284;BME280;15377;48.540;9.268;2023-03-19T10:10:09;97403.56;;;22.05;54.52
5284;BME280;15377;48.540;9.268;2023-03-19T10:12:58;97398.78;;;21.93;49.24
5284;BME280;15377;48.540;9.268;2023-03-19T10:15:30;97397.06;;;22.66;49.86
5284;BME280;15377;48.540;9.268;2023-03-19T10:18:01;97387.88;;;23.01;46.70
5284;BME280;15377;48.540;9.268;2023-03-19T10:25:39;97385.25;;;23.03;45.16
5284;BME280;15377;48.540;9.268;2023-03-19T10:28:16;97388.09;;;24.28;48.04
5284;BME280;15377;48.540;9.268;2023-03-19T10:31:00;97385.22;;;25.28;44.21
5284;BME280;15377;48.540;9.268;2023-03-19T10:36:26;97381.06;;;25.21;42.03
5284;BME280;15377;48.540;9.268;2023-03-19T10:38:54;97382.34;;;25.35;38.61
5284;BME280;15377;48.540;9.268;2023-03-19T10:41:50;97366.22;;;25.60;39.22
5284;BME280;15377;48.540;9.268;2023-03-19T10:44:33;97365.88;;;24.70;40.03
5284;BME280;15377;48.540;9.268;2023-03-19T10:47:09;97354.06;;;25.18;40.46
5284;BME280;15377;48.540;9.268;2023-03-19T10:49:35;97364.94;;;25.29;43.39
5284;BME280;15377;48.540;9.268;2023-03-19T10:52:01;97351.00;;;24.22;40.08
5284;BME280;15377;48.540;9.268;2023-03-19T10:54:27;97371.22;;;23.76;44.71
5284;BME280;15377;48.540;9.268;2023-03-19T10:56:57;97364.63;;;22.50;43.00
5284;BME280;15377;48.540;9.268;2023-03-19T11:01:56;97351.75;;;22.98;45.22
5284;BME280;15377;48.540;9.268;2023-03-19T11:04:24;97354.84;;;22.44;46.60
5284;BME280;15377;48.540;9.268;2023-03-19T11:06:55;97345.91;;;21.69;46.17
5284;BME280;15377;48.540;9.268;2023-03-19T11:09:33;97357.78;;;21.62;47.11
5284;BME280;15377;48.540;9.268;2023-03-19T11:14:40;97356.31;;;20.94;53.53
5284;BME280;15377;48.540;9.268;2023-03-19T11:17:48;97356.72;;;20.38;56.32
5284;BME280;15377;48.540;9.268;2023-03-19T11:22:51;97350.34;;;20.38;50.21
5284;BME280;15377;48.540;9.268;2023-03-19T11:25:27;97360.88;;;20.06;51.46
5284;BME280;15377;48.540;9.268;2023-03-19T11:30:31;97354.69;;;19.18;55.95
5284;BME280;15377;48.540;9.268;2023-03-19T11:35:43;97353.56;;;17.87;57.77
5284;BME280;15377;48.540;9.268;2023-03-19T11:38:38;97340.72;;;17.54;61.56
5284;BME280;15377;48.540;9.268;2023-03-19T11:43:49;97339.47;;;17.20;62.98
5284;BME280;15377;48.540;9.268;2023-03-19T11:46:36;97338.91;;;17.27;62.19
5284;BME280;15377;48.540;9.268;2023-03-19T11:51:52;97341.44;;;18.08;65.18
5284;BME280;15377;48.540;9.268;2023-03-19T11:57:19;97340.88;;;17.91;62.91
5284;BME280;15377;48.540;9.268;2023-03-19T12:05:30;97331.44;;;17.46;60.97
5284;BME280;15377;48.540;9.268;2023-03-19T12:08:06;97328.38;;;17.50;65.35
5284;BME280;15377;48.540;9.268;2023-03-19T12:11:06;97336.44;;;17.77;63.49
5284;BME280;15377;48.540;9.268;2023-03-19T12:13:43;97329.16;;;17.74;62.84
5284;BME280;15377;48.540;9.268;2023-03-19T12:25:00;97338.16;;;18.89;60.58
5284;BME280;15377;48.540;9.268;2023-03-19T12:27:31;97326.03;;;19.36;61.47
5284;BME280;15377;48.540;9.268;2023-03-19T12:35:15;97324.47;;;19.54;56.67
5284;BME280;15377;48.540;9.268;2023-03-19T12:37:55;97314.56;;;19.40;57.28
5284;BME280;15377;48.540;9.268;2023-03-19T12:40:26;97317.56;;;19.42;57.33
5284;BME280;15377;48.540;9.268;2023-03-19T12:42:57;97318.16;;;19.22;59.39
5284;BME280;15377;48.540;9.268;2023-03-19T12:46:06;97321.53;;;19.15;61.27
5284;BME280;15377;48.540;9.268;2023-03-19T12:48:47;97324.44;;;18.54;58.32
5284;BME280;15377;48.540;9.268;2023-03-19T12:51:17;97320.75;;;18.04;61.63
5284;BME280;15377;48.540;9.268;2023-03-19T12:57:03;97321.47;;;17.56;69.91
5284;BME280;15377;48.540;9.268;2023-03-19T13:02:29;97314.00;;;17.70;65.45
5284;BME280;15377;48.540;9.268;2023-03-19T13:05:20;97310.25;;;17.67;63.01
5284;BME280;15377;48.540;9.268;2023-03-19T13:10:38;97313.75;;;17.92;64.74
5284;BME280;15377;48.540;9.268;2023-03-19T13:15:45;97312.69;;;17.76;68.98
5284;BME280;15377;48.540;9.268;2023-03-19T13:23:37;97306.09;;;17.50;68.37
5284;BME280;15377;48.540;9.268;2023-03-19T13:26:09;97302.81;;;17.51;68.04
5284;BME280;15377;48.540;9.268;2023-03-19T13:28:37;97301.75;;;17.54;70.15
5284;BME280;15377;48.540;9.268;2023-03-19T13:31:19;97311.72;;;17.44;65.12
5284;BME280;15377;48.540;9.268;2023-03-19T13:33:52;97307.16;;;17.47;67.91
5284;BME280;15377;48.540;9.268;2023-03-19T13:36:19;97299.50;;;17.53;73.50
5284;BME280;15377;48.540;9.268;2023-03-19T13:38:49;97310.44;;;17.45;72.78
5284;BME280;15377;48.540;9.268;2023-03-19T13:46:48;97303.25;;;16.96;72.91
5284;BME280;15377;48.540;9.268;2023-03-19T13:52:00;97293.41;;;16.95;74.89
5284;BME280;15377;48.540;9.268;2023-03-19T13:54:40;97307.66;;;17.10;75.07
5284;BME280;15377;48.540;9.268;2023-03-19T13:59:40;97307.75;;;16.99;75.96
5284;BME280;15377;48.540;9.268;2023-03-19T14:05:16;97299.97;;;17.27;75.64
5284;BME280;15377;48.540;9.268;2023-03-19T14:07:47;97295.59;;;17.02;71.87
5284;BME280;15377;48.540;9.268;2023-03-19T14:10:28;97301.25;;;16.91;73.58
5284;BME280;15377;48.540;9.268;2023-03-19T14:13:07;97305.66;;;16.76;74.87
5284;BME280;15377;48.540;9.268;2023-03-19T14:15:37;97298.19;;;16.54;77.51
5284;BME280;15377;48.540;9.268;2023-03-19T14:18:12;97304.09;;;16.34;76.68
5284;BME280;15377;48.540;9.268;2023-03-19T14:23:24;97304.72;;;16.05;82.90
5284;BME280;15377;48.540;9.268;2023-03-19T14:28:34;97300.28;;;15.69;96.82
5284;BME280;15377;48.540;9.268;2023-03-19T14:31:02;97311.16;;;15.51;100.00
5284;BME280;15377;48.540;9.268;2023-03-19T14:33:34;97308.13;;;15.21;100.00
5284;BME280;15377;48.540;9.268;2023-03-19T14:36:04;97301.59;;;14.91;100.00
5284;BME280;15377;48.540;9.268;2023-03-19T14:38:37;97293.19;;;14.48;100.00
5284;BME280;15377;48.540;9.268;2023-03-19T14:41:05;97317.63;;;14.60;100.00
5284;BME280;15377;48.540;9.268;2023-03-19T14:49:29;97324.13;;;14.41;100.00
5284;BME280;15377;48.540;9.268;2023-03-19T14:52:09;97327.38;;;14.34;100.00
5284;BME280;15377;48.540;9.268;2023-03-19T14:54:47;97330.13;;;14.28;100.00
5284;BME280;15377;48.540;9.268;2023-03-19T14:57:15;97342.69;;;14.24;100.00
5284;BME280;15377;48.540;9.268;2023-03-19T14:59:41;97342.63;;;14.13;100.00